createdAt,value
2022-08-05T00:01:36.168Z,64.81
2022-08-05T00:04:17.480Z,65.19
2022-08-05T00:06:45.515Z,64.87
2022-08-05T00:09:14.906Z,64.84
2022-08-05T00:11:48.407Z,65.58
2022-08-05T00:14:17.937Z,65.57
2022-08-05T00:16:53.044Z,65.69
2022-08-05T00:19:33.605Z,65.77
2022-08-05T00:22:11.767Z,66.00
2022-08-05T00:24:42.589Z,66.29
2022-08-05T00:27:14.033Z,67.09
2022-08-05T00:29:44.624Z,67.09
2022-08-05T00:32:15.468Z,67.82
2022-08-05T00:35:03.290Z,67.31
2022-08-05T00:37:50.823Z,67.14
2022-08-05T00:40:28.352Z,67.16
2022-08-05T00:42:59.116Z,67.58
2022-08-05T00:45:38.783Z,67.57
2022-08-05T00:48:13.930Z,67.91
2022-08-05T00:50:44.037Z,67.57
2022-08-05T00:54:00.739Z,68.01
2022-08-05T00:56:00.012Z,68.05
2022-08-05T00:58:27.797Z,68.16
2022-08-05T01:00:55.787Z,68.64
2022-08-05T01:03:24.329Z,68.25
2022-08-05T01:05:58.868Z,68.25
2022-08-05T01:08:31.611Z,68.52
2022-08-05T01:11:36.845Z,68.69
2022-08-05T01:14:18.140Z,68.63
2022-08-05T01:17:26.999Z,68.71
2022-08-05T01:20:03.862Z,68.74
2022-08-05T01:23:15.009Z,69.22
2022-08-05T01:26:21.620Z,68.87
2022-08-05T01:29:07.543Z,69.21
2022-08-05T01:31:49.896Z,69.25
2022-08-05T01:34:26.679Z,69.53
2022-08-05T01:37:25.250Z,69.47
2022-08-05T01:39:58.683Z,68.85
2022-08-05T01:42:29.454Z,69.54
2022-08-05T01:45:02.221Z,69.61
2022-08-05T01:47:39.322Z,69.72
2022-08-05T01:50:28.828Z,69.43
2022-08-05T01:53:10.002Z,69.38
2022-08-05T01:55:42.226Z,69.56
2022-08-05T01:58:15.610Z,69.82
2022-08-05T02:00:51.020Z,69.91
2022-08-05T02:03:34.180Z,69.90
2022-08-05T02:06:33.641Z,69.85
2022-08-05T02:08:58.352Z,70.13
2022-08-05T02:11:48.072Z,70.02
2022-08-05T02:14:31.952Z,70.40
2022-08-05T02:17:29.716Z,70.31
2022-08-05T02:20:04.814Z,70.17
2022-08-05T02:22:43.625Z,70.73
2022-08-05T02:25:26.744Z,70.49
2022-08-05T02:28:08.598Z,70.56
2022-08-05T02:30:51.655Z,70.37
2022-08-05T02:33:24.351Z,70.03
2022-08-05T02:36:05.590Z,70.17
2022-08-05T02:38:38.316Z,70.21
2022-08-05T02:41:16.956Z,69.84
2022-08-05T02:44:02.391Z,69.77
2022-08-05T02:46:53.817Z,69.92
2022-08-05T02:49:27.308Z,70.42
2022-08-05T02:52:09.363Z,70.21
2022-08-05T02:54:41.678Z,70.44
2022-08-05T02:58:11.823Z,70.54
2022-08-05T03:00:05.764Z,70.54
2022-08-05T03:02:40.536Z,71.01
2022-08-05T03:05:13.936Z,71.01
2022-08-05T03:08:07.097Z,71.00
2022-08-05T03:10:32.183Z,71.06
2022-08-05T03:15:26.770Z,71.49
2022-08-05T03:17:57.650Z,71.43
2022-08-05T03:20:25.537Z,71.66
2022-08-05T03:22:57.725Z,71.62
2022-08-05T03:25:33.820Z,71.53
2022-08-05T03:28:18.872Z,72.58
2022-08-05T03:30:49.618Z,72.35
2022-08-05T03:33:18.779Z,72.11
2022-08-05T03:35:48.562Z,72.52
2022-08-05T03:38:32.782Z,72.26
2022-08-05T03:41:08.168Z,72.08
2022-08-05T03:44:09.535Z,72.26
2022-08-05T03:46:26.867Z,72.15
2022-08-05T03:48:58.105Z,72.18
2022-08-05T03:52:36.906Z,71.71
2022-08-05T03:56:01.625Z,71.56
2022-08-05T03:57:52.135Z,71.45
2022-08-05T04:00:26.706Z,71.72
2022-08-05T04:02:59.263Z,71.57
2022-08-05T04:05:34.445Z,71.33
2022-08-05T04:08:14.915Z,70.94
2022-08-05T04:10:55.024Z,70.81
2022-08-05T04:13:23.343Z,70.88
2022-08-05T04:16:02.945Z,71.79
2022-08-05T04:18:34.403Z,71.16
2022-08-05T04:21:04.226Z,70.74
2022-08-05T04:24:06.040Z,70.86
2022-08-05T04:26:21.790Z,70.71
2022-08-05T04:28:51.028Z,70.31
2022-08-05T04:31:20.123Z,70.19
2022-08-05T04:34:17.712Z,69.82
2022-08-05T04:36:46.144Z,69.83
2022-08-05T04:39:21.702Z,69.77
2022-08-05T04:41:51.164Z,70.16
2022-08-05T04:44:29.104Z,69.49
2022-08-05T04:46:59.009Z,69.72
2022-08-05T04:49:38.836Z,69.76
2022-08-05T04:52:16.400Z,69.49
2022-08-05T04:54:43.893Z,69.10
2022-08-05T04:57:11.329Z,69.25
2022-08-05T04:59:40.835Z,68.91
2022-08-05T05:02:36.334Z,68.54
2022-08-05T05:05:01.951Z,68.70
2022-08-05T05:07:32.664Z,68.89
2022-08-05T05:10:04.456Z,68.40
2022-08-05T05:12:32.576Z,68.53
2022-08-05T05:14:59.868Z,68.04
2022-08-05T05:17:56.566Z,68.15
2022-08-05T05:20:28.304Z,67.56
2022-08-05T05:23:08.091Z,68.07
2022-08-05T05:25:41.024Z,67.46
2022-08-05T05:28:10.272Z,67.72
2022-08-05T05:30:39.800Z,67.83
2022-08-05T05:33:16.031Z,67.63
2022-08-05T05:35:47.355Z,67.93
2022-08-05T05:38:22.679Z,67.71
2022-08-05T05:40:57.042Z,67.74
2022-08-05T05:43:54.546Z,67.74
2022-08-05T05:46:17.778Z,67.91
2022-08-05T05:48:48.663Z,68.25
2022-08-05T05:51:24.527Z,68.58
2022-08-05T05:53:59.013Z,68.26
2022-08-05T05:56:33.306Z,68.03
2022-08-05T05:59:07.503Z,67.78
2022-08-05T06:01:57.756Z,68.13
2022-08-05T06:04:25.615Z,67.89
2022-08-05T06:06:54.233Z,68.11
2022-08-05T06:09:25.839Z,67.70
2022-08-05T06:12:01.368Z,67.71
2022-08-05T06:14:34.631Z,67.83
2022-08-05T06:17:22.227Z,67.72
2022-08-05T06:19:57.129Z,67.45
2022-08-05T06:22:35.434Z,67.29
2022-08-05T06:25:24.465Z,67.09
2022-08-05T06:28:10.813Z,66.38
2022-08-05T06:30:41.407Z,66.42
2022-08-05T06:33:09.934Z,66.07
2022-08-05T06:36:05.717Z,65.77
2022-08-05T06:38:35.587Z,65.78
2022-08-05T06:41:07.769Z,65.18
2022-08-05T06:43:58.903Z,64.87
2022-08-05T06:46:29.891Z,64.17
2022-08-05T06:49:00.756Z,63.71
2022-08-05T06:51:33.887Z,63.34
2022-08-05T06:54:04.954Z,63.38
2022-08-05T06:56:34.930Z,63.48
2022-08-05T06:59:09.587Z,62.70
2022-08-05T07:01:40.795Z,62.18
2022-08-05T07:04:10.247Z,61.45
2022-08-05T07:06:37.558Z,60.86
2022-08-05T07:09:05.496Z,60.35
2022-08-05T07:11:36.859Z,60.32
2022-08-05T07:14:29.771Z,60.04
2022-08-05T07:17:59.724Z,59.29
2022-08-05T07:22:42.244Z,59.02
2022-08-05T07:25:23.191Z,58.99
2022-08-05T07:28:03.939Z,58.61
2022-08-05T07:30:39.048Z,58.66
2022-08-05T07:33:16.102Z,58.62
2022-08-05T07:36:03.792Z,58.47
2022-08-05T07:38:42.835Z,58.12
2022-08-05T07:42:07.671Z,57.41
2022-08-05T07:44:18.654Z,57.13
2022-08-05T07:46:49.761Z,57.03
2022-08-05T07:49:18.941Z,56.72
2022-08-05T07:51:53.023Z,56.21
2022-08-05T07:54:31.227Z,56.30
2022-08-05T07:57:16.729Z,56.21
2022-08-05T07:59:51.124Z,55.80
2022-08-05T08:02:18.559Z,54.27
2022-08-05T08:04:48.264Z,53.96
2022-08-05T08:07:18.406Z,54.25
2022-08-05T08:09:53.087Z,52.93
2022-08-05T08:12:37.378Z,52.97
2022-08-05T08:15:15.747Z,52.39
2022-08-05T08:17:50.812Z,51.21
2022-08-05T08:20:59.921Z,51.40
2022-08-05T08:23:11.815Z,50.23
2022-08-05T08:25:59.213Z,48.89
2022-08-05T08:28:36.104Z,48.55
2022-08-05T08:31:08.679Z,49.01
2022-08-05T08:33:38.079Z,49.43
2022-08-05T08:38:57.382Z,47.46
2022-08-05T08:41:52.009Z,46.26
2022-08-05T08:45:23.840Z,46.49
2022-08-05T08:47:46.811Z,47.08
2022-08-05T08:50:22.347Z,46.01
2022-08-05T08:53:07.865Z,45.91
2022-08-05T08:56:04.279Z,45.40
2022-08-05T08:58:36.896Z,45.23
2022-08-05T09:01:11.103Z,45.32
2022-08-05T09:03:57.560Z,45.52
2022-08-05T09:06:29.923Z,44.38
2022-08-05T09:09:02.242Z,44.24
2022-08-05T09:11:52.141Z,44.04
2022-08-05T09:14:57.811Z,43.82
2022-08-05T09:17:40.188Z,42.61
2022-08-05T09:20:04.740Z,42.56
2022-08-05T09:23:18.598Z,42.50
2022-08-05T09:26:06.504Z,41.08
2022-08-05T09:28:39.697Z,32.41
2022-08-05T09:32:38.509Z,23.23
2022-08-05T09:34:03.412Z,18.36
2022-08-05T09:36:56.257Z,15.10
2022-08-05T09:39:44.892Z,12.17
2022-08-05T09:42:24.002Z,11.14
2022-08-05T09:45:17.753Z,9.88
2022-08-05T09:47:55.362Z,8.33
2022-08-05T09:50:43.945Z,7.90
2022-08-05T09:53:23.015Z,7.46
2022-08-05T09:56:11.427Z,6.87
2022-08-05T09:58:41.840Z,6.66
2022-08-05T10:01:15.594Z,5.88
2022-08-05T10:04:04.645Z,5.21
2022-08-05T10:06:58.999Z,4.88
2022-08-05T10:09:29.290Z,5.14
2022-08-05T10:12:30.269Z,4.30
2022-08-05T10:15:36.063Z,4.20
2022-08-05T10:18:20.229Z,4.13
2022-08-05T10:20:54.240Z,4.15
2022-08-05T10:23:56.439Z,3.68
2022-08-05T10:26:32.773Z,3.61
2022-08-05T10:29:02.683Z,3.36
2022-08-05T10:32:54.431Z,3.33
2022-08-05T10:34:25.876Z,2.95
2022-08-05T10:36:57.785Z,3.51
2022-08-05T10:40:03.047Z,3.44
2022-08-05T10:42:33.582Z,3.36
2022-08-05T10:45:21.249Z,3.18
2022-08-05T10:48:29.765Z,3.11
2022-08-05T10:50:58.883Z,2.89
2022-08-05T10:53:51.847Z,3.86
2022-08-05T10:56:29.225Z,5.88
2022-08-05T10:59:12.282Z,8.01
2022-08-05T11:02:02.847Z,10.36
2022-08-05T11:04:42.498Z,11.58
2022-08-05T11:07:16.652Z,12.73
2022-08-05T11:09:49.595Z,13.00
2022-08-05T11:12:37.243Z,14.28
2022-08-05T11:15:19.761Z,15.52
2022-08-05T11:17:59.038Z,16.63
2022-08-05T11:20:38.986Z,17.81
2022-08-05T11:24:04.818Z,18.54
2022-08-05T11:26:39.091Z,19.99
2022-08-05T11:29:13.853Z,20.24
2022-08-05T11:31:56.561Z,20.18
2022-08-05T11:34:52.125Z,20.50
2022-08-05T11:38:28.065Z,21.25
2022-08-05T11:41:01.715Z,20.98
2022-08-05T11:44:05.025Z,21.75
2022-08-05T11:47:10.181Z,21.46
2022-08-05T11:49:39.827Z,22.13
2022-08-05T11:52:11.349Z,22.76
2022-08-05T11:54:40.368Z,23.05
2022-08-05T11:57:25.947Z,22.79
2022-08-05T11:59:55.173Z,22.56
2022-08-05T12:02:31.395Z,22.28
2022-08-05T12:05:06.900Z,22.61
2022-08-05T12:08:09.186Z,23.10
2022-08-05T12:10:45.550Z,23.52
2022-08-05T12:13:18.626Z,23.28
2022-08-05T12:15:56.130Z,23.71
2022-08-05T12:18:38.684Z,23.93
2022-08-05T12:21:15.946Z,24.02
2022-08-05T12:24:04.409Z,24.52
2022-08-05T12:26:37.824Z,24.58
2022-08-05T12:29:17.922Z,25.28
2022-08-05T12:31:56.806Z,24.45
2022-08-05T12:34:31.893Z,24.78
2022-08-05T12:37:17.315Z,24.57
2022-08-05T12:40:03.593Z,24.32
2022-08-05T12:42:40.465Z,24.47
2022-08-05T12:45:10.428Z,23.86
2022-08-05T12:48:01.043Z,22.22
2022-08-05T12:50:26.629Z,21.63
2022-08-05T12:53:00.106Z,22.13
2022-08-05T12:55:32.768Z,22.08
2022-08-05T12:58:50.507Z,21.78
2022-08-05T13:02:01.011Z,22.56
2022-08-05T13:03:42.023Z,22.95
2022-08-05T13:06:17.874Z,23.73
2022-08-05T13:08:51.866Z,23.21
2022-08-05T13:12:01.781Z,23.18
2022-08-05T13:14:36.147Z,23.30
2022-08-05T13:17:31.533Z,23.45
2022-08-05T13:20:05.285Z,23.54
2022-08-05T13:22:36.761Z,24.13
2022-08-05T13:25:19.420Z,24.55
2022-08-05T13:27:57.503Z,24.66
2022-08-05T13:30:35.275Z,23.89
2022-08-05T13:33:04.699Z,24.06
2022-08-05T13:35:50.314Z,24.51
2022-08-05T13:38:31.057Z,24.57
2022-08-05T13:41:04.001Z,24.56
2022-08-05T13:43:45.581Z,24.65
2022-08-05T13:46:35.739Z,23.82
2022-08-05T13:49:11.602Z,24.40
2022-08-05T13:51:46.096Z,24.64
2022-08-05T13:54:17.091Z,24.73
2022-08-05T13:56:51.418Z,23.56
2022-08-05T13:59:23.763Z,23.81
2022-08-05T14:01:59.235Z,22.85
2022-08-05T14:04:52.121Z,22.46
2022-08-05T14:07:59.844Z,22.82
2022-08-05T14:10:28.521Z,22.30
2022-08-05T14:12:58.800Z,22.42
2022-08-05T14:16:07.366Z,22.63
2022-08-05T14:18:18.071Z,22.80
2022-08-05T14:20:48.223Z,22.42
2022-08-05T14:23:24.663Z,21.41
2022-08-05T14:25:58.867Z,20.93
2022-08-05T14:28:30.884Z,21.37
2022-08-05T14:31:01.055Z,21.92
2022-08-05T14:33:32.562Z,22.34
2022-08-05T14:36:21.642Z,22.04
2022-08-05T14:38:50.924Z,22.07
2022-08-05T14:41:18.815Z,22.30
2022-08-05T14:44:00.167Z,22.16
2022-08-05T14:46:35.103Z,22.13
2022-08-05T14:49:07.536Z,22.61
2022-08-05T14:51:42.400Z,22.81
2022-08-05T14:54:27.547Z,23.33
2022-08-05T14:56:58.158Z,22.84
2022-08-05T14:59:29.742Z,22.71
2022-08-05T15:02:14.828Z,23.15
2022-08-05T15:04:45.014Z,23.08
2022-08-05T15:08:05.736Z,22.66
2022-08-05T15:10:03.333Z,22.93
2022-08-05T15:12:51.345Z,23.21
2022-08-05T15:15:55.307Z,23.57
2022-08-05T15:18:06.712Z,23.28
2022-08-05T15:20:34.299Z,23.55
2022-08-05T15:23:11.359Z,23.42
2022-08-05T15:25:52.321Z,23.84
2022-08-05T15:28:27.128Z,23.49
2022-08-05T15:30:56.240Z,23.92
2022-08-05T15:34:04.282Z,23.95
2022-08-05T15:36:17.557Z,23.97
2022-08-05T15:41:00.837Z,24.21
2022-08-05T15:41:55.985Z,24.53
2022-08-05T15:44:29.960Z,24.69
2022-08-05T15:47:00.840Z,25.41
2022-08-05T15:49:40.829Z,24.68
2022-08-05T15:52:29.382Z,25.19
2022-08-05T15:54:58.286Z,25.01
2022-08-05T15:57:32.934Z,25.17
2022-08-05T16:00:00.464Z,25.08
2022-08-05T16:02:30.344Z,25.47
2022-08-05T16:04:58.897Z,25.92
2022-08-05T16:07:26.299Z,25.76
2022-08-05T16:09:58.264Z,25.66
2022-08-05T16:12:26.196Z,26.16
2022-08-05T16:14:53.577Z,25.93
2022-08-05T16:17:21.239Z,25.63
2022-08-05T16:20:05.075Z,25.92
2022-08-05T16:22:37.020Z,25.83
2022-08-05T16:25:09.469Z,26.15
2022-08-05T16:27:46.968Z,26.29
2022-08-05T16:30:29.015Z,26.03
2022-08-05T16:32:58.158Z,26.40
2022-08-05T16:35:28.301Z,26.30
2022-08-05T16:38:01.756Z,26.08
2022-08-05T16:40:51.846Z,25.99
2022-08-05T16:43:26.530Z,26.85
2022-08-05T16:46:04.521Z,26.65
2022-08-05T16:48:38.336Z,26.45
2022-08-05T16:51:09.879Z,26.87
2022-08-05T16:54:06.104Z,27.07
2022-08-05T16:56:33.841Z,26.62
2022-08-05T16:59:10.541Z,26.88
2022-08-05T17:01:54.541Z,26.65
2022-08-05T17:04:28.492Z,27.12
2022-08-05T17:07:01.036Z,26.74
2022-08-05T17:09:30.437Z,26.82
2022-08-05T17:12:06.627Z,27.14
2022-08-05T17:14:37.187Z,26.95
2022-08-05T17:17:09.477Z,27.09
2022-08-05T17:19:45.702Z,27.27
2022-08-05T17:22:25.125Z,27.26
2022-08-05T17:24:58.662Z,27.39
2022-08-05T17:27:33.502Z,27.74
2022-08-05T17:30:07.151Z,27.54
2022-08-05T17:32:45.823Z,28.09
2022-08-05T17:35:15.423Z,28.48
2022-08-05T17:37:45.204Z,29.00
2022-08-05T17:40:17.144Z,29.96
2022-08-05T17:42:51.926Z,30.27
2022-08-05T17:45:25.041Z,30.49
2022-08-05T17:47:58.092Z,30.62
2022-08-05T17:50:30.574Z,30.42
2022-08-05T17:53:01.205Z,30.33
2022-08-05T17:55:37.735Z,31.10
2022-08-05T17:58:13.426Z,32.04
2022-08-05T18:00:47.606Z,32.12
2022-08-05T18:03:56.327Z,33.41
2022-08-05T18:06:12.160Z,32.88
2022-08-05T18:08:52.171Z,33.05
2022-08-05T18:11:24.235Z,33.82
2022-08-05T18:13:54.097Z,33.03
2022-08-05T18:16:21.397Z,32.85
2022-08-05T18:18:50.128Z,32.88
2022-08-05T18:21:19.992Z,32.89
2022-08-05T18:23:53.434Z,32.77
2022-08-05T18:26:27.819Z,32.21
2022-08-05T18:28:57.938Z,32.20
2022-08-05T18:31:25.529Z,34.41
2022-08-05T18:34:00.441Z,36.16
2022-08-05T18:36:28.402Z,34.46
2022-08-05T18:38:56.473Z,34.53
2022-08-05T18:41:57.289Z,38.58
2022-08-05T18:44:12.763Z,38.05
2022-08-05T18:46:40.995Z,38.62
2022-08-05T18:49:30.671Z,38.78
2022-08-05T18:52:32.979Z,39.07
2022-08-05T18:55:05.480Z,39.91
2022-08-05T18:57:43.169Z,40.62
2022-08-05T19:00:20.535Z,41.14
2022-08-05T19:02:48.571Z,41.59
2022-08-05T19:06:11.177Z,42.16
2022-08-05T19:08:13.388Z,42.43
2022-08-05T19:10:41.617Z,43.13
2022-08-05T19:13:12.239Z,43.03
2022-08-05T19:15:58.902Z,43.41
2022-08-05T19:18:31.956Z,43.72
2022-08-05T19:20:59.875Z,44.36
2022-08-05T19:24:07.431Z,44.17
2022-08-05T19:26:16.706Z,44.93
2022-08-05T19:28:44.558Z,45.39
2022-08-05T19:31:19.248Z,45.69
2022-08-05T19:33:56.628Z,46.22
2022-08-05T19:36:26.412Z,46.27
2022-08-05T19:39:01.208Z,47.17
2022-08-05T19:41:58.323Z,47.26
2022-08-05T19:44:19.341Z,47.30
2022-08-05T19:46:47.473Z,48.27
2022-08-05T19:49:18.046Z,48.48
2022-08-05T19:52:09.306Z,48.70
2022-08-05T19:54:35.399Z,49.40
2022-08-05T19:57:09.634Z,48.82
2022-08-05T19:59:55.247Z,49.05
2022-08-05T20:02:31.507Z,48.93
2022-08-05T20:04:59.899Z,49.21
2022-08-05T20:07:45.903Z,49.48
2022-08-05T20:10:19.358Z,49.87
2022-08-05T20:12:49.623Z,49.96
2022-08-05T20:15:23.330Z,49.80
2022-08-05T20:18:10.750Z,50.26
2022-08-05T20:20:57.081Z,50.49
2022-08-05T20:23:40.409Z,50.14
2022-08-05T20:26:16.568Z,50.67
2022-08-05T20:28:55.871Z,51.72
2022-08-05T20:31:37.281Z,51.41
2022-08-05T20:34:14.022Z,51.46
2022-08-05T20:36:43.046Z,51.79
2022-08-05T20:39:16.478Z,51.79
2022-08-05T20:41:47.645Z,51.98
2022-08-05T20:44:30.655Z,52.41
2022-08-05T20:47:05.370Z,52.50
2022-08-05T20:49:39.592Z,52.56
2022-08-05T20:52:07.867Z,52.51
2022-08-05T20:54:43.496Z,52.84
2022-08-05T20:57:43.173Z,52.60
2022-08-05T21:00:40.789Z,53.07
2022-08-05T21:03:06.882Z,53.13
2022-08-05T21:05:48.132Z,53.34
2022-08-05T21:08:26.663Z,53.60
2022-08-05T21:11:12.255Z,53.60
2022-08-05T21:13:55.904Z,53.34
2022-08-05T21:16:29.429Z,53.61
2022-08-05T21:19:03.644Z,53.73
2022-08-05T21:21:39.206Z,54.14
2022-08-05T21:24:15.607Z,54.85
2022-08-05T21:26:53.099Z,55.11
2022-08-05T21:29:26.156Z,55.34
2022-08-05T21:31:54.617Z,54.81
2022-08-05T21:34:25.728Z,55.14
2022-08-05T21:36:55.598Z,55.02
2022-08-05T21:39:26.569Z,54.94
2022-08-05T21:42:01.237Z,55.15
2022-08-05T21:44:31.035Z,55.24
2022-08-05T21:47:00.157Z,55.51
2022-08-05T21:49:48.620Z,55.09
2022-08-05T21:52:28.124Z,55.48
2022-08-05T21:55:05.989Z,55.30
2022-08-05T21:57:42.738Z,55.08
2022-08-05T22:00:12.949Z,55.52
2022-08-05T22:02:42.573Z,55.46
2022-08-05T22:05:13.853Z,55.90
2022-08-05T22:07:58.904Z,56.52
2022-08-05T22:10:27.765Z,56.95
2022-08-05T22:13:09.129Z,56.92
2022-08-05T22:16:01.874Z,57.65
2022-08-05T22:18:34.764Z,57.88
2022-08-05T22:21:03.956Z,57.87
2022-08-05T22:24:01.711Z,58.63
2022-08-05T22:26:50.532Z,59.16
2022-08-05T22:29:19.001Z,59.49
2022-08-05T22:31:59.120Z,59.67
2022-08-05T22:34:28.883Z,59.96
2022-08-05T22:36:58.897Z,60.50
2022-08-05T22:39:33.367Z,60.57
2022-08-05T22:42:12.715Z,60.69
2022-08-05T22:44:53.790Z,61.11
2022-08-05T22:47:29.651Z,61.57
2022-08-05T22:50:19.961Z,62.54
2022-08-05T22:52:52.474Z,62.51
2022-08-05T22:55:22.126Z,62.72
2022-08-05T22:57:52.179Z,61.83
2022-08-05T23:00:23.024Z,62.00
2022-08-05T23:02:53.519Z,61.83
2022-08-05T23:05:23.033Z,62.21
2022-08-05T23:07:51.887Z,62.00
2022-08-05T23:10:24.077Z,62.27
2022-08-05T23:12:55.781Z,62.45
2022-08-05T23:15:34.735Z,62.48
2022-08-05T23:18:06.045Z,62.45
2022-08-05T23:20:43.056Z,62.41
2022-08-05T23:23:10.958Z,62.45
2022-08-05T23:25:52.100Z,62.49
2022-08-05T23:28:28.650Z,62.22
2022-08-05T23:31:15.772Z,62.08
2022-08-05T23:34:03.932Z,62.07
2022-08-05T23:36:39.875Z,61.64
2022-08-05T23:39:16.595Z,61.76
2022-08-05T23:41:51.613Z,61.87
2022-08-05T23:44:22.592Z,61.53
2022-08-05T23:46:52.507Z,61.74
2022-08-05T23:49:23.762Z,61.70
2022-08-05T23:52:11.537Z,62.37
2022-08-05T23:54:38.930Z,63.83
2022-08-05T23:57:08.077Z,66.79
